Time;durP1;ratioP1;P1;durP2;ratioP2;P2;SDS_P1;SDS_P2;PMS_P1;PMS_P2;Temp;Humidity;BMP_temperature;BMP_pressure;BME280_temperature;BME280_humidity;BME280_pressure;Samples;Min_cycle;Max_cycle;Signal;HPM_P1;HPM_P2
2023/10/24 00:01:42;;;;;;;9.65;2.72;;;18.80;61.30;;;;;;6214358;28;20536;-66
2023/10/24 00:04:43;;;;;;;14.98;3.20;;;18.80;61.40;;;;;;6214501;28;20030;-66
2023/10/24 00:07:46;;;;;;;7.55;2.55;;;18.70;61.40;;;;;;6214381;28;20116;-64
2023/10/24 00:10:47;;;;;;;10.35;2.50;;;18.70;61.40;;;;;;6213832;28;20094;-65
2023/10/24 00:13:48;;;;;;;15.68;2.80;;;18.70;61.50;;;;;;6216612;28;20453;-65
2023/10/24 00:16:48;;;;;;;9.95;2.80;;;18.70;61.50;;;;;;6210307;28;20089;-65
2023/10/24 00:19:49;;;;;;;15.07;2.78;;;18.70;62.40;;;;;;6193091;28;20097;-66
2023/10/24 00:22:50;;;;;;;8.77;2.33;;;18.70;61.50;;;;;;6193464;28;20077;-65
2023/10/24 00:25:51;;;;;;;12.75;2.55;;;18.70;61.50;;;;;;6194385;28;20033;-66
2023/10/24 00:28:52;;;;;;;7.72;2.50;;;18.70;61.50;;;;;;6194091;28;20046;-66
2023/10/24 00:31:53;;;;;;;12.25;2.47;;;18.70;61.50;;;;;;6193903;28;20065;-66
2023/10/24 00:34:54;;;;;;;10.00;2.60;;;18.30;61.20;;;;;;6192705;28;20455;-65
2023/10/24 00:37:55;;;;;;;11.18;2.15;;;18.70;61.40;;;;;;6193777;28;20136;-64
2023/10/24 00:40:56;;;;;;;9.85;2.35;;;18.80;61.40;;;;;;6193801;28;20722;-65
2023/10/24 00:43:56;;;;;;;14.65;2.50;;;18.80;61.30;;;;;;6193761;28;20410;-65
2023/10/24 00:46:57;;;;;;;7.68;1.48;;;18.80;61.20;;;;;;6192749;28;20088;-64
2023/10/24 00:49:59;;;;;;;5.30;1.85;;;18.80;61.20;;;;;;6193528;28;20034;-65
2023/10/24 00:53:01;;;;;;;17.90;2.45;;;18.80;61.00;;;;;;6194176;28;20376;-66
2023/10/24 00:56:02;;;;;;;9.30;1.95;;;18.80;60.90;;;;;;6193645;28;20109;-65
2023/10/24 00:59:04;;;;;;;17.08;2.10;;;18.90;60.80;;;;;;6191874;28;20100;-66
2023/10/24 01:02:05;;;;;;;8.90;2.20;;;18.90;60.80;;;;;;6195053;28;20052;-65
2023/10/24 01:05:07;;;;;;;7.60;2.35;;;18.90;60.80;;;;;;6191564;28;20056;-66
2023/10/24 01:08:08;;;;;;;7.50;1.80;;;19.00;60.70;;;;;;6191483;28;20508;-65
2023/10/24 01:11:10;;;;;;;7.90;2.00;;;19.00;60.60;;;;;;6198690;28;20033;-66
2023/10/24 01:14:11;;;;;;;8.85;2.28;;;19.00;60.60;;;;;;6201361;28;20046;-65
2023/10/24 01:17:13;;;;;;;16.52;2.83;;;19.00;60.40;;;;;;6191995;28;20418;-66
2023/10/24 01:20:14;;;;;;;9.20;2.35;;;19.00;60.40;;;;;;6193996;28;20038;-65
2023/10/24 01:23:15;;;;;;;7.63;2.30;;;19.00;60.40;;;;;;6193751;28;20053;-66
2023/10/24 01:26:17;;;;;;;12.15;2.47;;;19.10;60.30;;;;;;6191530;28;20042;-66
2023/10/24 01:29:19;;;;;;;9.15;2.53;;;19.10;60.20;;;;;;6191473;28;20130;-66
2023/10/24 01:32:29;;;;;;;10.27;2.33;;;19.10;60.20;;;;;;6191437;28;20499;-65
2023/10/24 01:35:30;;;;;;;6.50;2.20;;;19.00;60.40;;;;;;6193043;28;20034;-66
2023/10/24 01:38:32;;;;;;;6.50;2.42;;;19.00;60.40;;;;;;6175908;28;20027;-65
2023/10/24 01:41:33;;;;;;;9.73;2.00;;;19.00;60.40;;;;;;6191018;28;20219;-65
2023/10/24 01:44:34;;;;;;;7.60;2.50;;;19.00;60.40;;;;;;6190927;28;20038;-65
2023/10/24 01:47:35;;;;;;;4.05;2.00;;;19.00;60.50;;;;;;6191882;28;20412;-66
2023/10/24 01:50:36;;;;;;;8.95;2.50;;;19.10;60.50;;;;;;6192276;28;20353;-65
2023/10/24 01:53:37;;;;;;;9.27;2.30;;;19.10;60.50;;;;;;6192323;28;20033;-65
2023/10/24 01:56:38;;;;;;;18.83;2.42;;;19.10;60.50;;;;;;6192154;28;20018;-66
2023/10/24 01:59:38;;;;;;;15.73;3.05;;;19.10;60.40;;;;;;6193997;28;20140;-66
2023/10/24 02:02:39;;;;;;;9.18;3.03;;;19.10;60.40;;;;;;6214966;28;20705;-66
2023/10/24 02:05:40;;;;;;;9.02;2.63;;;19.10;60.20;;;;;;6214309;28;20220;-65
2023/10/24 02:08:41;;;;;;;12.52;2.40;;;19.10;60.30;;;;;;6198100;28;20487;-64
2023/10/24 02:11:45;;;;;;;21.00;2.35;;;19.10;60.40;;;;;;6216066;28;20168;-65
2023/10/24 02:14:46;;;;;;;10.52;2.80;;;19.10;61.20;;;;;;6217458;28;20669;-66
2023/10/24 02:17:47;;;;;;;6.05;2.42;;;19.10;60.30;;;;;;6216192;28;20029;-64
2023/10/24 02:20:48;;;;;;;6.57;2.20;;;19.10;60.30;;;;;;6217395;28;20064;-66
2023/10/24 02:23:49;;;;;;;27.73;2.95;;;19.10;61.20;;;;;;6216311;28;20025;-65
2023/10/24 02:26:50;;;;;;;10.00;2.40;;;19.10;60.40;;;;;;6214524;28;20038;-65
2023/10/24 02:29:51;;;;;;;8.45;2.22;;;19.10;60.50;;;;;;6215528;28;20049;-66
2023/10/24 02:32:52;;;;;;;10.07;2.35;;;19.10;60.50;;;;;;6215716;28;20483;-65
2023/10/24 02:36:04;;;;;;;10.75;2.67;;;19.10;60.60;;;;;;6213717;28;20034;-66
2023/10/24 02:39:05;;;;;;;5.68;1.88;;;19.10;60.60;;;;;;6215260;28;20795;-66
2023/10/24 02:42:06;;;;;;;9.50;2.85;;;19.10;60.70;;;;;;6214058;28;20034;-65
2023/10/24 02:45:08;;;;;;;18.30;2.42;;;19.10;60.70;;;;;;6215459;28;20037;-66
2023/10/24 02:48:08;;;;;;;10.23;2.20;;;19.10;60.80;;;;;;6215691;28;20113;-66
2023/10/24 02:51:11;;;;;;;12.32;2.40;;;19.00;60.80;;;;;;6213932;28;20713;-66
2023/10/24 02:54:12;;;;;;;9.00;2.67;;;19.00;61.00;;;;;;6215610;28;20030;-66
2023/10/24 02:57:13;;;;;;;9.38;2.67;;;19.10;61.00;;;;;;6215414;28;20164;-66
2023/10/24 03:00:14;;;;;;;11.60;2.35;;;19.10;61.00;;;;;;6214890;28;20496;-67
2023/10/24 03:03:16;;;;;;;15.20;2.97;;;19.10;60.90;;;;;;6215316;28;20068;-65
2023/10/24 03:06:18;;;;;;;7.00;2.25;;;19.10;61.00;;;;;;6199897;28;20035;-65
2023/10/24 03:09:19;;;;;;;11.52;2.60;;;19.10;61.00;;;;;;6188758;28;20045;-66
2023/10/24 03:12:20;;;;;;;9.75;2.28;;;19.10;61.00;;;;;;6207239;28;20105;-65
2023/10/24 03:15:21;;;;;;;6.97;2.15;;;19.10;61.10;;;;;;6216627;28;20502;-66
2023/10/24 03:18:22;;;;;;;7.53;2.28;;;19.10;61.10;;;;;;6216701;28;20026;-66
2023/10/24 03:21:23;;;;;;;9.65;2.97;;;19.10;61.20;;;;;;6214892;28;20044;-66
2023/10/24 03:24:28;;;;;;;14.07;2.00;;;19.10;61.30;;;;;;6196905;28;20078;-66
2023/10/24 03:27:29;;;;;;;8.73;2.20;;;19.00;61.30;;;;;;6213086;28;20100;-66
2023/10/24 03:30:30;;;;;;;11.23;2.58;;;19.10;61.40;;;;;;6214420;28;20088;-66
2023/10/24 03:33:31;;;;;;;4.72;2.05;;;19.10;61.30;;;;;;6213021;28;20045;-66
2023/10/24 03:36:32;;;;;;;6.65;2.47;;;19.10;61.30;;;;;;6214426;28;20115;-67
2023/10/24 03:39:33;;;;;;;16.67;2.55;;;19.10;61.20;;;;;;6212613;28;20037;-66
2023/10/24 03:42:34;;;;;;;11.18;2.70;;;19.20;61.20;;;;;;6212999;28;20482;-65
2023/10/24 03:45:37;;;;;;;11.60;2.38;;;19.10;61.10;;;;;;6214265;28;20036;-65
2023/10/24 03:48:38;;;;;;;13.40;2.30;;;19.10;61.20;;;;;;6217773;28;20089;-64
2023/10/24 03:51:39;;;;;;;13.63;2.72;;;19.10;61.50;;;;;;6218936;28;20022;-66
2023/10/24 03:54:40;;;;;;;12.27;2.92;;;19.10;61.70;;;;;;6218809;28;20032;-66
2023/10/24 03:57:40;;;;;;;14.85;2.67;;;19.10;61.70;;;;;;6217272;28;20068;-66
2023/10/24 04:00:41;;;;;;;9.40;2.30;;;19.10;61.70;;;;;;6218568;28;20045;-65
2023/10/24 04:03:43;;;;;;;8.77;2.25;;;19.10;61.70;;;;;;6196312;28;20475;-65
2023/10/24 04:06:44;;;;;;;12.40;2.67;;;19.10;61.80;;;;;;6194692;28;20081;-64
2023/10/24 04:09:45;;;;;;;6.57;2.33;;;19.20;62.70;;;;;;6194179;28;20034;-65
2023/10/24 04:12:45;;;;;;;12.50;2.72;;;19.20;61.90;;;;;;6212661;28;20069;-68
2023/10/24 04:15:46;;;;;;;7.72;2.55;;;19.20;61.90;;;;;;6218819;28;20034;-66
2023/10/24 04:18:47;;;;;;;17.65;2.58;;;19.20;62.10;;;;;;6218625;28;20152;-67
2023/10/24 04:21:48;;;;;;;9.90;2.38;;;19.10;62.30;;;;;;6218654;28;20072;-66
2023/10/24 04:24:49;;;;;;;5.70;1.98;;;19.10;62.50;;;;;;6218983;28;20029;-66
2023/10/24 04:27:50;;;;;;;5.53;2.70;;;19.10;62.50;;;;;;6218395;28;20095;-65
2023/10/24 04:30:52;;;;;;;10.30;2.30;;;19.10;62.70;;;;;;6218362;28;20030;-67
2023/10/24 04:33:53;;;;;;;10.07;2.35;;;19.00;62.80;;;;;;6218338;28;20046;-68
2023/10/24 04:36:53;;;;;;;9.60;2.42;;;19.00;62.80;;;;;;6218138;28;20033;-66
2023/10/24 04:39:54;;;;;;;8.70;2.70;;;19.00;63.00;;;;;;6216311;28;20475;-65
2023/10/24 04:42:56;;;;;;;13.23;2.60;;;19.00;63.30;;;;;;6216546;28;20034;-65
2023/10/24 04:45:57;;;;;;;9.07;2.90;;;19.00;63.30;;;;;;6218399;28;20053;-65
2023/10/24 04:48:57;;;;;;;9.93;2.42;;;19.00;63.30;;;;;;6218086;28;20116;-66
2023/10/24 04:51:58;;;;;;;5.85;2.25;;;19.10;63.50;;;;;;6217461;28;20030;-65
2023/10/24 04:54:59;;;;;;;8.52;2.63;;;19.10;63.40;;;;;;6216133;28;20040;-65
2023/10/24 04:58:00;;;;;;;24.63;3.35;;;19.10;63.40;;;;;;6199142;28;20030;-66
2023/10/24 05:01:01;;;;;;;12.95;3.35;;;19.10;63.40;;;;;;6217378;28;20034;-66
2023/10/24 05:04:02;;;;;;;11.25;2.80;;;19.10;63.50;;;;;;6217815;28;20136;-65
2023/10/24 05:07:03;;;;;;;30.50;3.45;;;19.10;63.60;;;;;;6219302;28;20406;-66
2023/10/24 05:10:04;;;;;;;14.05;2.97;;;19.10;63.70;;;;;;6223355;28;20180;-66
2023/10/24 05:13:06;;;;;;;9.93;2.83;;;19.10;63.80;;;;;;6217009;28;20542;-65
2023/10/24 05:16:06;;;;;;;8.70;2.55;;;19.10;63.90;;;;;;6215119;28;20089;-66
2023/10/24 05:19:07;;;;;;;10.07;3.30;;;19.10;64.10;;;;;;6216767;28;20717;-66
2023/10/24 05:22:10;;;;;;;24.83;3.17;;;19.10;64.40;;;;;;6216881;28;20395;-66
2023/10/24 05:25:11;;;;;;;14.93;3.50;;;19.00;64.80;;;;;;6215818;28;20041;-66
2023/10/24 05:28:11;;;;;;;10.70;2.65;;;19.00;65.10;;;;;;6217068;28;20109;-66
2023/10/24 05:31:12;;;;;;;11.23;3.13;;;18.90;65.10;;;;;;6217657;28;20026;-68
2023/10/24 05:34:13;;;;;;;24.58;3.80;;;18.90;65.40;;;;;;6217724;28;20112;-66
2023/10/24 05:37:14;;;;;;;14.43;2.58;;;18.80;65.60;;;;;;6217366;28;20045;-67
2023/10/24 05:40:15;;;;;;;12.52;2.78;;;18.80;65.80;;;;;;6216726;28;20076;-66
2023/10/24 05:43:19;;;;;;;16.70;2.88;;;18.80;65.90;;;;;;6217602;28;20030;-65
2023/10/24 05:46:20;;;;;;;15.73;3.63;;;18.80;65.90;;;;;;6217201;28;20108;-67
2023/10/24 05:49:21;;;;;;;17.98;2.55;;;18.80;66.00;;;;;;6216908;28;20056;-66
2023/10/24 05:52:22;;;;;;;18.63;2.90;;;18.80;67.30;;;;;;6216624;28;20119;-66
2023/10/24 05:55:23;;;;;;;11.38;2.95;;;18.70;67.10;;;;;;6218165;28;20045;-66
2023/10/24 05:58:24;;;;;;;19.00;3.58;;;18.70;67.30;;;;;;6216659;28;20033;-66
2023/10/24 06:01:25;;;;;;;9.75;2.92;;;18.70;67.40;;;;;;6216502;28;20029;-65
2023/10/24 06:04:26;;;;;;;7.28;2.92;;;18.60;67.40;;;;;;6215196;28;20025;-65
2023/10/24 06:07:27;;;;;;;21.83;3.80;;;18.60;67.80;;;;;;6216284;28;20030;-66
2023/10/24 06:10:28;;;;;;;17.30;2.90;;;18.60;68.10;;;;;;6213477;28;20034;-65
2023/10/24 06:13:29;;;;;;;16.30;2.40;;;18.50;68.50;;;;;;6190143;28;20042;-64
2023/10/24 06:16:30;;;;;;;13.63;2.65;;;18.50;68.90;;;;;;6192008;28;20053;-65
2023/10/24 06:19:33;;;;;;;10.07;2.55;;;18.40;69.10;;;;;;6190383;28;20043;-67
2023/10/24 06:22:33;;;;;;;15.93;3.28;;;18.40;69.50;;;;;;6191019;28;20109;-66
2023/10/24 06:25:41;;;;;;;11.77;2.40;;;18.30;69.70;;;;;;6191976;28;20085;-66
2023/10/24 06:28:43;;;;;;;15.20;3.22;;;18.30;70.00;;;;;;6191221;28;20048;-67
2023/10/24 06:31:43;;;;;;;9.95;2.38;;;18.30;70.20;;;;;;6191237;28;20034;-66
2023/10/24 06:34:44;;;;;;;31.40;8.48;;;18.30;70.20;;;;;;6191334;28;20038;-65
2023/10/24 06:37:45;;;;;;;11.05;3.20;;;18.40;70.30;;;;;;6189879;28;20042;-66
2023/10/24 06:40:46;;;;;;;20.10;4.15;;;18.40;70.20;;;;;;6190649;28;20069;-65
2023/10/24 06:43:47;;;;;;;26.15;4.28;;;18.40;70.10;;;;;;6189604;28;20117;-66
2023/10/24 06:46:49;;;;;;;11.73;3.10;;;18.40;70.00;;;;;;6191165;28;20141;-67
2023/10/24 06:49:50;;;;;;;12.93;3.20;;;18.50;70.00;;;;;;6190349;28;20142;-64
2023/10/24 06:52:51;;;;;;;12.23;2.80;;;18.50;69.90;;;;;;6215718;28;20434;-66
2023/10/24 06:55:59;;;;;;;10.70;3.30;;;18.60;69.90;;;;;;6216036;28;20033;-67
2023/10/24 06:59:00;;;;;;;8.10;2.80;;;18.60;69.80;;;;;;6215263;28;20103;-66
2023/10/24 07:02:00;;;;;;;10.77;2.92;;;18.60;69.70;;;;;;6216407;28;20030;-66
2023/10/24 07:05:02;;;;;;;5.80;2.47;;;18.60;69.60;;;;;;6217125;28;20105;-66
2023/10/24 07:08:03;;;;;;;8.02;3.10;;;18.60;69.50;;;;;;6215160;28;20033;-67
2023/10/24 07:11:04;;;;;;;13.43;2.90;;;18.60;69.40;;;;;;6214880;28;20067;-67
2023/10/24 07:14:05;;;;;;;16.25;2.83;;;18.60;69.40;;;;;;6213637;28;20058;-66
2023/10/24 07:17:05;;;;;;;11.43;2.63;;;18.60;69.30;;;;;;6213707;28;20041;-67
2023/10/24 07:20:07;;;;;;;13.02;2.67;;;18.60;69.20;;;;;;6214401;28;20117;-65
2023/10/24 07:23:08;;;;;;;15.80;2.97;;;18.70;69.20;;;;;;6214501;28;20041;-65
2023/10/24 07:26:09;;;;;;;17.08;3.05;;;18.70;69.00;;;;;;6214618;28;20037;-67
2023/10/24 07:29:10;;;;;;;10.25;2.90;;;18.70;69.00;;;;;;6214268;28;20211;-65
2023/10/24 07:32:11;;;;;;;6.80;3.03;;;18.80;69.00;;;;;;6212675;28;20087;-67
2023/10/24 07:35:12;;;;;;;11.00;2.70;;;18.80;69.00;;;;;;6212884;28;20030;-66
2023/10/24 07:38:13;;;;;;;16.50;2.85;;;18.70;69.00;;;;;;6214382;28;20517;-65
2023/10/24 07:41:14;;;;;;;11.20;3.45;;;18.70;69.00;;;;;;6212970;28;20038;-66
2023/10/24 07:44:14;;;;;;;11.82;3.42;;;18.60;69.20;;;;;;6214268;28;20428;-66
2023/10/24 07:47:15;;;;;;;9.98;3.53;;;18.60;69.40;;;;;;6214782;28;20049;-66
2023/10/24 07:50:16;;;;;;;30.92;6.47;;;18.60;69.50;;;;;;6212676;28;20037;-67
2023/10/24 07:53:18;;;;;;;13.68;3.80;;;18.60;69.90;;;;;;6212892;28;20055;-66
2023/10/24 07:56:22;;;;;;;20.95;4.18;;;18.50;70.10;;;;;;6212179;28;20439;-65
2023/10/24 07:59:23;;;;;;;16.23;5.72;;;18.20;70.50;;;;;;6211527;28;20052;-66
2023/10/24 08:02:27;;;;;;;7.10;3.30;;;18.40;71.20;;;;;;6204005;28;20030;-67
2023/10/24 08:05:28;;;;;;;8.55;2.05;;;18.40;71.40;;;;;;6189526;28;20112;-65
2023/10/24 08:08:29;;;;;;;4.50;1.70;;;18.40;71.50;;;;;;6204192;28;20406;-65
2023/10/24 08:11:30;;;;;;;2.35;0.63;;;18.40;71.80;;;;;;6211983;28;20033;-67
2023/10/24 08:14:31;;;;;;;3.90;0.68;;;18.40;71.70;;;;;;6213925;28;20505;-65
2023/10/24 08:17:32;;;;;;;2.97;0.73;;;18.30;71.60;;;;;;6213992;28;20368;-67
2023/10/24 08:20:33;;;;;;;0.95;0.40;;;18.30;71.60;;;;;;6212419;28;20037;-66
2023/10/24 08:23:33;;;;;;;1.13;0.25;;;18.20;71.60;;;;;;6212588;28;20037;-65
2023/10/24 08:26:34;;;;;;;0.20;0.20;;;18.10;71.60;;;;;;6212306;28;20033;-65
2023/10/24 08:29:35;;;;;;;0.95;0.28;;;18.00;71.20;;;;;;6213118;28;20034;-66
2023/10/24 08:32:36;;;;;;;0.55;0.20;;;17.90;71.40;;;;;;6213734;28;20133;-65
2023/10/24 08:35:37;;;;;;;0.98;0.50;;;17.80;71.40;;;;;;6217789;28;20131;-66
2023/10/24 08:38:38;;;;;;;0.52;0.20;;;17.80;71.50;;;;;;6215800;28;20080;-65
2023/10/24 08:41:39;;;;;;;0.10;0.10;;;17.80;71.60;;;;;;6217436;28;20124;-64
2023/10/24 08:44:45;;;;;;;1.77;0.30;;;17.70;71.70;;;;;;6214714;28;20044;-65
2023/10/24 08:47:49;;;;;;;0.20;0.20;;;17.50;72.10;;;;;;6216073;28;20129;-66
2023/10/24 08:50:50;;;;;;;1.52;0.32;;;17.50;72.20;;;;;;6215573;28;20367;-66
2023/10/24 08:54:06;;;;;;;0.30;0.20;;;17.40;72.10;;;;;;6127941;29;20107;-64
2023/10/24 08:57:08;;;;;;;0.70;0.38;;;17.40;72.00;;;;;;6142063;29;20039;-65
2023/10/24 09:00:10;;;;;;;0.52;0.35;;;17.40;71.80;;;;;;6119046;29;20043;-66
2023/10/24 09:03:11;;;;;;;0.20;0.10;;;17.40;71.70;;;;;;6133597;29;20054;-64
2023/10/24 09:06:13;;;;;;;1.08;0.05;;;17.40;71.60;;;;;;6117291;29;20460;-66
2023/10/24 09:09:15;;;;;;;0.10;0.10;;;17.30;71.30;;;;;;6117315;29;20052;-65
2023/10/24 09:12:16;;;;;;;6.55;0.20;;;17.30;71.40;;;;;;6132737;29;20123;-66
2023/10/24 09:15:17;;;;;;;0.70;0.10;;;17.30;71.40;;;;;;6141530;29;20196;-69
2023/10/24 09:18:17;;;;;;;4.38;0.30;;;17.30;71.40;;;;;;6141243;29;20043;-66
2023/10/24 09:21:18;;;;;;;0.28;0.20;;;17.30;72.10;;;;;;6125171;29;20035;-64
2023/10/24 09:24:20;;;;;;;0.40;0.30;;;17.30;71.10;;;;;;6141069;29;20046;-65
2023/10/24 09:27:27;;;;;;;2.38;0.30;;;17.30;71.00;;;;;;6141179;29;20198;-67
2023/10/24 09:30:33;;;;;;;0.68;0.40;;;17.30;71.00;;;;;;6165068;28;20042;-66
2023/10/24 09:33:34;;;;;;;0.73;0.25;;;17.30;71.00;;;;;;6215529;28;20053;-64
2023/10/24 09:36:35;;;;;;;1.10;0.40;;;17.40;70.90;;;;;;6218774;28;20045;-65
2023/10/24 09:39:59;;;;;;;3.50;0.43;;;17.40;70.80;;;;;;6219359;28;20092;-66
2023/10/24 09:43:07;;;;;;;1.95;0.50;;;17.40;71.00;;;;;;6218729;28;20117;-66
2023/10/24 09:46:09;;;;;;;0.75;0.20;;;17.40;71.00;;;;;;6215459;28;20522;-65
2023/10/24 09:49:11;;;;;;;0.30;0.30;;;17.50;70.90;;;;;;6214721;28;20056;-66
2023/10/24 09:52:13;;;;;;;0.68;0.20;;;17.60;70.70;;;;;;6216576;28;20030;-66
2023/10/24 09:55:16;;;;;;;1.25;0.50;;;17.60;70.60;;;;;;6214769;28;20030;-65
2023/10/24 09:58:18;;;;;;;0.63;0.30;;;17.60;70.40;;;;;;6215846;28;20457;-67
2023/10/24 10:01:19;;;;;;;0.10;0.10;;;17.60;70.30;;;;;;6214195;28;20506;-64
2023/10/24 10:04:20;;;;;;;0.00;0.00;;;17.60;70.20;;;;;;6215974;28;20094;-67
2023/10/24 10:07:24;;;;;;;0.45;0.20;;;17.60;70.00;;;;;;6215662;28;20509;-67
2023/10/24 10:10:25;;;;;;;0.30;0.30;;;17.70;69.90;;;;;;6215416;28;20067;-66
2023/10/24 10:13:30;;;;;;;0.38;0.20;;;17.70;69.70;;;;;;6215781;28;20045;-66
2023/10/24 10:17:10;;;;;;;1.05;0.40;;;17.70;69.50;;;;;;6213962;28;20183;-66
2023/10/24 10:20:31;;;;;;;1.17;0.38;;;17.60;69.30;;;;;;6170824;28;20146;-66
2023/10/24 10:23:45;;;;;;;1.42;0.30;;;17.60;69.20;;;;;;6187177;28;20446;-66
2023/10/24 10:27:25;;;;;;;0.35;0.35;;;17.50;69.30;;;;;;6155346;28;20046;-68
2023/10/24 10:30:38;;;;;;;;;;;17.60;69.60;;;;;;6092856;29;20051;-66
2023/10/24 10:33:40;;;;;;;2.55;0.68;;;17.60;69.90;;;;;;6092044;29;19915;-65
2023/10/24 10:36:53;;;;;;;1.05;0.68;;;17.60;70.00;;;;;;6091569;29;20052;-65
2023/10/24 10:40:24;;;;;;;2.03;0.77;;;17.60;70.10;;;;;;6091603;29;20588;-64
2023/10/24 10:43:35;;;;;;;0.52;0.40;;;17.70;70.00;;;;;;6006902;29;20535;-66
2023/10/24 10:46:36;;;;;;;1.67;0.40;;;17.70;69.90;;;;;;6022898;29;20582;-68
2023/10/24 10:49:53;;;;;;;0.98;0.45;;;17.80;69.90;;;;;;6023433;29;20065;-65
2023/10/24 10:53:12;;;;;;;1.08;0.70;;;17.80;69.90;;;;;;6022620;29;20090;-68
2023/10/24 10:56:16;;;;;;;2.15;0.60;;;17.90;69.50;;;;;;6022522;29;20288;-66
2023/10/24 10:59:32;;;;;;;1.27;0.30;;;18.00;69.00;;;;;;6022359;29;20045;-67
2023/10/24 11:03:22;;;;;;;0.40;0.40;;;18.00;68.80;;;;;;6022935;29;20132;-66
2023/10/24 11:06:26;;;;;;;1.63;1.10;;;18.00;68.70;;;;;;6016291;29;20135;-66
2023/10/24 11:09:31;;;;;;;6.78;1.70;;;18.00;68.60;;;;;;6067851;29;20048;-65
2023/10/24 11:12:32;;;;;;;1.08;0.68;;;18.00;68.60;;;;;;6103041;29;20452;-65
2023/10/24 11:15:33;;;;;;;1.40;0.45;;;18.10;68.60;;;;;;6115382;29;20155;-65
2023/10/24 11:18:36;;;;;;;0.95;0.63;;;18.10;68.50;;;;;;6123967;28;20055;-65
2023/10/24 11:21:37;;;;;;;1.30;0.40;;;18.00;68.30;;;;;;6162613;28;20373;-68
2023/10/24 11:24:38;;;;;;;1.60;0.40;;;18.10;68.30;;;;;;6146793;28;20062;-65
2023/10/24 11:27:40;;;;;;;2.85;0.57;;;18.00;68.20;;;;;;6162492;28;20039;-66
2023/10/24 11:30:41;;;;;;;2.30;0.65;;;17.90;68.20;;;;;;6162518;28;20170;-65
2023/10/24 11:33:42;;;;;;;2.88;1.17;;;17.90;68.40;;;;;;6162449;28;20042;-67
2023/10/24 11:36:43;;;;;;;1.25;0.30;;;17.80;68.40;;;;;;6163029;28;20038;-66
2023/10/24 11:39:44;;;;;;;1.48;0.43;;;17.80;68.50;;;;;;6158644;28;20057;-65
2023/10/24 11:42:45;;;;;;;1.52;0.65;;;17.80;68.60;;;;;;6190870;28;20027;-65
2023/10/24 11:45:46;;;;;;;1.50;0.70;;;17.70;68.70;;;;;;6190022;28;20058;-66
2023/10/24 11:48:47;;;;;;;3.30;1.23;;;17.70;69.00;;;;;;6190573;28;20038;-65
2023/10/24 11:51:48;;;;;;;3.15;0.90;;;17.60;68.90;;;;;;6191448;28;20049;-65
2023/10/24 11:54:53;;;;;;;4.13;0.60;;;17.60;69.20;;;;;;6190765;28;20115;-66
2023/10/24 11:57:53;;;;;;;3.17;1.00;;;17.60;69.40;;;;;;6188583;28;20050;-66
2023/10/24 12:00:57;;;;;;;0.93;0.40;;;17.70;69.30;;;;;;6201155;28;20048;-67
2023/10/24 12:04:00;;;;;;;0.40;0.40;;;17.70;69.40;;;;;;6212944;28;20030;-67
2023/10/24 12:07:08;;;;;;;1.77;0.52;;;17.70;69.30;;;;;;6214179;28;20080;-65
2023/10/24 12:10:12;;;;;;;0.65;0.50;;;17.70;69.20;;;;;;6218476;28;20735;-66
2023/10/24 12:13:13;;;;;;;0.47;0.20;;;17.70;69.30;;;;;;6219496;28;20482;-67
2023/10/24 12:16:14;;;;;;;0.63;0.55;;;17.60;69.30;;;;;;6217576;28;20096;-66
2023/10/24 12:19:15;;;;;;;3.17;1.08;;;17.60;69.40;;;;;;6218747;28;20037;-66
2023/10/24 12:22:16;;;;;;;1.20;0.50;;;17.60;69.60;;;;;;6219325;28;20018;-66
2023/10/24 12:25:17;;;;;;;0.95;0.85;;;17.60;69.70;;;;;;6217494;28;20462;-66
2023/10/24 12:28:18;;;;;;;2.38;1.08;;;17.50;69.70;;;;;;6218529;28;20867;-65
2023/10/24 12:31:19;;;;;;;1.85;0.70;;;17.40;69.90;;;;;;6218817;28;20634;-68
2023/10/24 12:34:21;;;;;;;2.13;0.52;;;17.40;70.10;;;;;;6219295;28;20026;-65
2023/10/24 12:37:22;;;;;;;0.50;0.40;;;17.40;70.20;;;;;;6220429;28;20045;-67
2023/10/24 12:40:23;;;;;;;1.50;0.70;;;17.40;70.30;;;;;;6219264;28;20034;-67
2023/10/24 12:43:24;;;;;;;2.67;0.50;;;17.40;70.40;;;;;;6222296;28;20462;-66
2023/10/24 12:46:25;;;;;;;1.58;0.77;;;17.40;70.50;;;;;;6220184;28;20030;-66
2023/10/24 12:49:25;;;;;;;2.33;0.82;;;17.40;70.60;;;;;;6218804;28;20510;-67
2023/10/24 12:52:27;;;;;;;2.88;0.98;;;17.40;70.70;;;;;;6218704;28;20038;-67
2023/10/24 12:55:28;;;;;;;2.30;0.75;;;17.50;70.80;;;;;;6217517;28;20041;-69
2023/10/24 12:58:28;;;;;;;2.20;0.85;;;17.50;70.80;;;;;;6218885;28;20745;-66
2023/10/24 13:01:29;;;;;;;1.23;0.60;;;17.50;70.70;;;;;;6201192;28;20053;-66
2023/10/24 13:04:30;;;;;;;5.38;0.65;;;17.50;70.80;;;;;;6193479;28;20031;-66
2023/10/24 13:07:31;;;;;;;1.30;1.10;;;17.50;70.90;;;;;;6193955;28;20022;-66
2023/10/24 13:10:32;;;;;;;4.85;1.13;;;17.50;71.00;;;;;;6193256;28;20100;-65
2023/10/24 13:13:33;;;;;;;1.88;0.68;;;17.60;71.20;;;;;;6193960;28;20065;-66
2023/10/24 13:16:34;;;;;;;3.08;1.02;;;17.50;71.10;;;;;;6193436;28;20041;-66
2023/10/24 13:19:34;;;;;;;2.15;0.98;;;17.60;71.20;;;;;;6191713;28;20069;-66
2023/10/24 13:22:35;;;;;;;0.85;0.68;;;17.60;71.30;;;;;;6191989;28;20069;-65
2023/10/24 13:25:38;;;;;;;4.38;0.77;;;17.50;71.20;;;;;;6211834;28;20049;-66
2023/10/24 13:28:39;;;;;;;2.63;0.90;;;17.70;71.30;;;;;;6219884;28;20052;-66
2023/10/24 13:31:43;;;;;;;0.43;0.40;;;17.80;71.00;;;;;;6220260;28;20034;-66
2023/10/24 13:34:44;;;;;;;1.13;0.70;;;18.00;70.60;;;;;;6217729;28;20034;-66
2023/10/24 13:37:45;;;;;;;2.15;0.82;;;18.10;70.10;;;;;;6217005;28;20034;-66
2023/10/24 13:40:46;;;;;;;2.25;0.65;;;18.20;69.70;;;;;;6217089;28;20510;-66
2023/10/24 13:43:47;;;;;;;3.90;0.90;;;18.30;69.70;;;;;;6217065;28;20120;-64
2023/10/24 13:46:48;;;;;;;1.60;0.88;;;18.30;69.60;;;;;;6217013;28;20041;-65
2023/10/24 13:49:51;;;;;;;1.55;0.80;;;18.50;69.30;;;;;;6214730;28;20800;-67
2023/10/24 13:52:52;;;;;;;4.00;1.23;;;18.70;69.00;;;;;;6216472;28;20486;-64
2023/10/24 13:55:53;;;;;;;2.22;1.40;;;18.90;68.80;;;;;;6216563;28;20041;-66
2023/10/24 13:58:54;;;;;;;1.80;0.63;;;19.10;68.30;;;;;;6215901;28;20034;-65
2023/10/24 14:01:55;;;;;;;1.67;0.50;;;19.30;67.80;;;;;;6216303;28;20048;-67
2023/10/24 14:04:56;;;;;;;1.67;0.68;;;19.40;67.20;;;;;;6214682;28;20041;-65
2023/10/24 14:07:56;;;;;;;3.08;1.30;;;19.60;66.70;;;;;;6214902;28;20067;-67
2023/10/24 14:10:57;;;;;;;0.63;0.60;;;19.70;66.20;;;;;;6216009;28;20034;-65
2023/10/24 14:13:58;;;;;;;1.52;0.70;;;19.80;65.80;;;;;;6216381;28;20351;-65
2023/10/24 14:16:59;;;;;;;1.00;0.60;;;19.80;65.40;;;;;;6216101;28;20037;-66
2023/10/24 14:20:00;;;;;;;4.20;0.68;;;19.70;65.00;;;;;;6215590;28;20073;-65
2023/10/24 14:23:01;;;;;;;1.52;0.50;;;19.60;64.70;;;;;;6215453;28;20042;-67
2023/10/24 14:26:02;;;;;;;0.50;0.50;;;19.50;64.90;;;;;;6214737;28;20041;-67
2023/10/24 14:29:03;;;;;;;5.00;0.98;;;19.50;65.00;;;;;;6213807;28;20109;-66
2023/10/24 14:32:04;;;;;;;1.15;0.90;;;19.40;64.80;;;;;;6215497;28;20112;-65
2023/10/24 14:35:05;;;;;;;2.13;1.10;;;19.30;64.80;;;;;;6215716;28;20592;-68
2023/10/24 14:38:06;;;;;;;3.15;1.20;;;19.10;64.90;;;;;;6215315;28;20052;-65
2023/10/24 14:41:07;;;;;;;2.13;0.80;;;19.00;65.10;;;;;;6215089;28;20026;-68
2023/10/24 14:44:08;;;;;;;2.72;1.10;;;18.90;65.30;;;;;;6215347;28;20486;-65
2023/10/24 14:47:09;;;;;;;1.25;1.00;;;18.90;65.40;;;;;;6213902;28;20100;-68
2023/10/24 14:50:11;;;;;;;2.60;0.90;;;18.90;65.60;;;;;;6213488;28;20026;-66
2023/10/24 14:53:12;;;;;;;2.58;1.20;;;18.80;65.60;;;;;;6215126;28;20061;-66
2023/10/24 14:56:13;;;;;;;0.70;0.70;;;18.80;65.60;;;;;;6215039;28;20026;-66
2023/10/24 14:59:13;;;;;;;3.13;0.82;;;18.90;65.60;;;;;;6214703;28;20056;-67
2023/10/24 15:02:14;;;;;;;1.90;0.70;;;18.80;65.50;;;;;;6214929;28;20030;-67
2023/10/24 15:05:15;;;;;;;3.08;1.55;;;18.80;65.60;;;;;;6212955;28;20044;-67
2023/10/24 15:08:16;;;;;;;2.67;1.20;;;18.80;65.60;;;;;;6213047;28;20034;-66
2023/10/24 15:11:17;;;;;;;5.55;2.15;;;18.90;65.60;;;;;;6215169;28;20029;-68
2023/10/24 15:14:19;;;;;;;2.30;1.67;;;18.90;66.30;;;;;;6215212;28;20586;-66
2023/10/24 15:17:19;;;;;;;2.00;0.80;;;18.90;65.40;;;;;;6212923;28;20109;-66
2023/10/24 15:20:20;;;;;;;4.00;1.85;;;19.00;65.50;;;;;;6214612;28;20036;-66
2023/10/24 15:23:21;;;;;;;5.05;1.23;;;19.00;65.30;;;;;;6214881;28;20478;-68
2023/10/24 15:26:22;;;;;;;2.13;0.82;;;19.00;65.30;;;;;;6215237;28;20049;-65
2023/10/24 15:29:23;;;;;;;1.13;0.77;;;18.90;65.20;;;;;;6212889;28;20030;-66
2023/10/24 15:32:27;;;;;;;4.07;1.02;;;18.90;65.30;;;;;;6214727;28;20451;-67
2023/10/24 15:35:28;;;;;;;2.90;1.02;;;19.00;65.30;;;;;;6214782;28;20058;-69
2023/10/24 15:38:29;;;;;;;1.27;0.80;;;18.90;65.20;;;;;;6214875;28;20030;-68
2023/10/24 15:41:29;;;;;;;1.00;0.70;;;18.90;65.20;;;;;;6214578;28;20072;-67
2023/10/24 15:44:30;;;;;;;5.78;0.85;;;18.90;65.40;;;;;;6218050;28;20643;-65